Flight Track Log - Related Links

Times and Time Zones

All times are in EDT time to prevent confusion due to time zone crossing. See the CTL13 flight status page for this flight to view local times or setup timezone preferences in your user account.

Time Position Orientation Groundspeed Altitude Reporting Facility
EDT Latitude Longitude Course Direction KTS MPH feet Rate Location/Type
Tue 08:18:10 PM 39.9167 -86.2833 360° North 155 178 2,800  Level Indianapolis TRACON
Tue 08:19:15 PM 39.9547 -86.2919 350° North 148 170 3,800 709 Climbing Chicago Center
Tue 08:20:17 PM 39.9900 -86.3219 327° Northwest 158 182 4,300 484 Climbing Chicago Center
Tue 08:21:19 PM 40.0228 -86.3647 315° West 164 189 4,800 484 Climbing Chicago Center
Tue 08:22:21 PM 40.0622 -86.4150 316° Northwest 167 192 5,300 435 Climbing Chicago Center
Tue 08:23:23 PM 40.0956 -86.4586 315° West 168 193 5,700 290 Climbing Chicago Center
Tue 08:24:25 PM 40.1292 -86.5031 315° West 169 194 5,900 145 Climbing Chicago Center
Tue 08:25:27 PM 40.1650 -86.5500 315° West 175 201 6,000 48 Climbing Chicago Center
Tue 08:26:29 PM 40.2017 -86.5956 317° Northwest 179 206 6,000  Level Chicago Center
Tue 08:26:48 PM 40.2142 -86.6153 310° West 181 208 6,000 -97 Level Chicago Center
Tue 08:27:31 PM 40.2364 -86.6419 318° Northwest 178 205 5,900  Descending Chicago Center
Tue 08:27:48 PM 40.2481 -86.6611 309° West 178 205 6,000 97 Climbing Chicago Center
Tue 08:28:33 PM 40.2717 -86.6878 319° Northwest 177 204 6,000  Level Chicago Center
Tue 08:28:49 PM 40.2839 -86.7097 306° West 176 203 6,000  Level Chicago Center
Tue 08:29:35 PM 40.3125 -86.7411 320° Northwest 177 204 6,000  Level Chicago Center
Tue 08:30:36 PM 40.3464 -86.7892 313° West 179 206 6,000  Level Chicago Center
Tue 08:31:38 PM 40.3822 -86.8356 315° West 180 207 6,000  Level Chicago Center
Tue 08:32:40 PM 40.4169 -86.8811 315° West 177 204 6,000 -48 Level Chicago Center
Tue 08:33:42 PM 40.4531 -86.9275 316° Northwest 179 206 5,900  Descending Chicago Center
Tue 08:34:44 PM 40.4886 -86.9711 317° Northwest 176 203 6,000 48 Climbing Chicago Center
Tue 08:35:46 PM 40.5283 -87.0264 313° West 177 204 6,000  Level Chicago Center
Tue 08:36:48 PM 40.5603 -87.0764 310° West 179 206 6,000  Level Chicago Center
Tue 08:37:50 PM 40.6108 -87.0994 341° North 185 213 6,000 48 Level Chicago Center
Tue 08:38:52 PM 40.6569 -87.1253 337° Northwest 181 208 6,100 48 Climbing Chicago Center
Tue 08:39:54 PM 40.7017 -87.1500 337° Northwest 176 203 6,100  Level Chicago Center
Tue 08:40:56 PM 40.7492 -87.1736 339° North 182 209 6,100  Level Chicago Center
Tue 08:41:58 PM 40.7944 -87.2003 336° Northwest 181 208 6,100  Level Chicago Center
Tue 08:43:00 PM 40.8486 -87.2319 336° Northwest 176 203 6,100  Level Chicago Center
Tue 08:44:02 PM 40.8956 -87.2558 339° North 182 209 6,100  Level Chicago Center
Tue 08:45:04 PM 40.9414 -87.2808 338° Northwest 179 206 6,100 -97 Level Chicago Center
Tue 08:46:06 PM 40.9881 -87.3039 340° North 180 207 5,900 -48 Descending Chicago Center
Tue 08:47:08 PM 41.0347 -87.3281 339° North 179 206 6,000 48 Climbing Chicago Center
Tue 08:48:10 PM 41.0819 -87.3542 337° Northwest 184 212 6,000 -145 Level Chicago Center
Tue 08:49:12 PM 41.1389 -87.3850 338° Northwest 184 212 5,700 -435 Descending Chicago Center
Tue 08:50:14 PM 41.1903 -87.4119 338° Northwest 194 223 5,100 -581 Descending Chicago Center
Tue 08:51:16 PM 41.2442 -87.4375 340° North 201 231 4,500 -532 Descending Chicago Center
Tue 08:52:18 PM 41.2981 -87.4647 339° North 206 237 4,000 -242 Descending Chicago Center
Tue 08:53:20 PM 41.3508 -87.4906 340° North 206 237 4,000  Level Chicago Center
Tue 08:54:22 PM 41.4106 -87.5189 340° North 199 229 4,000  Level Chicago Center
Tue 08:55:23 PM 41.4586 -87.5469 336° Northwest 194 223 4,000  Level Chicago Center
Tue 08:56:25 PM 41.5094 -87.5711 340° North 194 223 4,000 -48 Level Chicago Center
Tue 08:57:27 PM 41.5583 -87.5942 341° North 197 227 3,900 -48 Descending Chicago Center
Tue 08:58:29 PM 41.6083 -87.5619 26° Northeast 199 229 3,900 -194 Level Chicago Center
Tue 08:59:31 PM 41.6608 -87.5933 336° Northwest 202 232 3,500 -716 Descending Chicago Center
Tue 09:00:43 PM 41.7167 -87.6500 323° Northwest 209 241 2,300 -727 Descending Chicago TRACON
Tue 09:01:43 PM 41.7667 -87.6833 334° Northwest 206 237 1,900 -316 Descending Chicago TRACON
Tue 09:02:37 PM 41.8167 -87.6667 14° North 204 235 1,700 -263 Descending Chicago TRACON
Tue 09:03:37 PM 41.8167 -87.7000 270° West 144 166 1,400 -400 Descending Chicago TRACON
Tue 09:04:37 PM 41.8000 -87.7333 236° Southwest 103 119 900 -500 Descending Chicago TRACON
Tue 09:06:00 PM 41.7833 -87.7500 228° Southwest  Level FlightAware Approximate

Login

Don't have an account? Register now (free) for customized features, flight alerts, and more!